AirNav   Pilot Hours Calculator
 
 1581 users online  

3MS1 Thomas Field Airport
Holly Springs, Mississippi, USA

GOING TO HOLLY SPRINGS?


FAA INFORMATION EFFECTIVE 18 JULY 2019

Location

FAA Identifier: 3MS1
Lat/Long: 34-48-25.0000N / 089-27-42.0000W
34-48.416667N / 089-27.700000W
34.8069444 / -89.4616667
(estimated)
Elevation: 485 ft. / 148 m (estimated)
Variation: 01E (1990)
From city: 2 miles NW of HOLLY SPRINGS, MS
Time zone: UTC -5 (UTC -6 during Standard Time)
Zip code: 38635

Airport Operations

Airport use: Private use. Permission required prior to landing
Activation date: 03/1994
Control tower: no
ARTCC: MEMPHIS CENTER
FSS: GREENWOOD FLIGHT SERVICE STATION
Attendance: UNATNDD
Segmented circle: no
Lights: ACTVT LIRL RWY 15/33 - 122.9

Airport Communications

WX AWOS-3 at OLV (19 nm NW): 119.925 (662-893-5906)

Nearby radio navigation aids

VOR radial/distance  VOR name  Freq  Var
HLIr035/2.8HOLLY SPRINGS VORTAC112.4003E
MEMr115/28.5MEMPHIS VORTAC117.5001E

Airport Services

Runway Information

Runway 15/33

Dimensions: 4188 x 50 ft. / 1277 x 15 m
Surface: asphalt
Runway edge lights: low intensity
RUNWAY 15  RUNWAY 33
Latitude: 34-48.733333N34-48.100000N
Longitude: 089-27.866667W089-27.533333W
Elevation: 460.0 ft.423.0 ft.
Traffic pattern: leftleft

Airport Ownership and Management from official FAA records

Ownership: Privately-owned
Owner: CHARLES THOMAS JR
1732 HWY 311 NORTH
HOLLY SPRINGS, MS 38635
Phone 662-252-9738
Manager: WILLIAM SCHNELLER
126 N SPRING ST
HOLLY SPRINGS, MS 38635
Phone (662) 252-3224

Additional Remarks

FOR CD CTC MEMPHIS APCH AT 901-842-8457.

Instrument Procedures

There are no published instrument procedures at 3MS1.

Some nearby airports with instrument procedures:

M41 - Holly Springs-Marshall County Airport (3 nm W)
KOLV - Olive Branch Airport (19 nm NW)
25M - Ripley Airport (23 nm E)
KFYE - Fayette County Airport (24 nm N)
KUOX - University-Oxford Airport (26 nm S)
 
Loc | Ops | Rwys | IFR | FBO | Links
Com | Nav | Svcs | Stats | Notes
Area around 3MS1 (Thomas Field Airport)
 
Road maps at: MapQuest Bing Google
 
Aerial photo
No photo
 
Sectional chart

 
Airport distance calculator
Flying to Thomas Field Airport? Find the distance to fly.

From to 3MS1

Sunrise and sunset
Times for 18-Jul-2019
 Local
(UTC-5)
 Zulu
(UTC)
Morning civil twilight05:3010:30
Sunrise05:5910:59
Sunset20:0901:09
Evening civil twilight20:3801:38

Current date and time
Zulu (UTC)  18-Jul-2019 14:25:49
Local (UTC-5)  18-Jul-2019 09:25:49
 
METAR
KOLV 
19nm NW 
181350Z 21008KT 10SM BKN160 BKN250 28/24 A3005
KFYE 
24nm N 
181355Z AUTO 22008KT 10SM CLR 28/25 A3004 RMK A01
KUOX 
26nm S 
181355Z AUTO 9SM CLR 27/24 A3008 RMK AO2 TSNO
KMEM 
30nm NW 
181354Z 23008G21KT 10SM SCT160 BKN250 28/26 A3004 RMK AO2 SLP166 T02830256 $
KM08 
32nm NE 
181355Z AUTO 24007G13KT 10SM FEW110 29/25 A3005 RMK A01
KPMU 
34nm SW 
181355Z AUTO 26004KT CLR 27/25 A3006 RMK AO2
TAF
KMEM 
30nm NW 
181122Z 1812/1918 22007KT P6SM SCT150 BKN250 FM181600 23007KT P6SM SCT030 BKN200 FM181900 22008KT P6SM VCSH SCT040 SCT200 FM190100 20006KT P6SM FEW250 FM191500 23007KT P6SM FEW030
NOTAMs
Click for the latest NOTAMs
NOTAMs are issued by the DoD/FAA and will open in a separate window not controlled by AirNav.

 

 
 

Would you like to see your business listed on this page?

 If your business provides an interesting product or service to pilots, flight crews, aircraft, or users of the Thomas Field Airport, you should consider listing it here.  To start the listing process, click on the button below
 
Add a business
 

Other Pages about Thomas Field Airport

Update a link
 
Copyright © AirNav, LLC. All rights reserved. Privacy Policy  Contact